createdAt,value
2018-01-15T00:01:51.873Z,98.70
2018-01-15T00:04:19.393Z,103.40
2018-01-15T00:06:46.894Z,101.23
2018-01-15T00:09:14.421Z,109.73
2018-01-15T00:11:41.939Z,97.87
2018-01-15T00:14:09.472Z,107.30
2018-01-15T00:16:37.771Z,100.37
2018-01-15T00:19:05.291Z,100.43
2018-01-15T00:21:32.850Z,97.17
2018-01-15T00:24:00.382Z,105.20
2018-01-15T00:26:27.893Z,97.07
2018-01-15T00:28:56.195Z,99.33
2018-01-15T00:31:23.682Z,99.07
2018-01-15T00:33:51.179Z,101.50
2018-01-15T00:36:18.704Z,102.00
2018-01-15T00:38:46.222Z,97.73
2018-01-15T00:41:13.709Z,99.97
2018-01-15T00:43:41.233Z,99.70
2018-01-15T00:46:08.751Z,98.43
2018-01-15T00:48:36.245Z,99.33
2018-01-15T00:51:03.786Z,100.93
2018-01-15T00:53:31.276Z,101.50
2018-01-15T00:55:58.801Z,108.20
2018-01-15T00:58:26.286Z,106.27
2018-01-15T01:00:53.779Z,97.37
2018-01-15T01:03:21.298Z,101.77
2018-01-15T01:05:48.822Z,114.83
2018-01-15T01:08:17.127Z,104.07
2018-01-15T01:10:44.625Z,100.60
2018-01-15T01:13:12.117Z,96.60
2018-01-15T01:15:39.633Z,106.63
2018-01-15T01:18:07.129Z,99.87
2018-01-15T01:20:34.648Z,99.17
2018-01-15T01:23:02.142Z,103.23
2018-01-15T01:25:29.662Z,107.47
2018-01-15T01:27:57.170Z,104.83
2018-01-15T01:30:24.700Z,106.63
2018-01-15T01:32:52.197Z,112.37
2018-01-15T01:35:19.729Z,105.07
2018-01-15T01:37:47.247Z,106.37
2018-01-15T01:40:14.738Z,124.17
2018-01-15T01:42:43.032Z,118.47
2018-01-15T01:45:10.532Z,112.20
2018-01-15T01:47:38.022Z,125.03
2018-01-15T01:50:05.703Z,118.83
2018-01-15T01:52:34.021Z,124.90
2018-01-15T01:55:02.230Z,110.47
2018-01-15T01:57:29.769Z,121.50
2018-01-15T01:59:57.293Z,116.00
2018-01-15T02:02:25.577Z,126.30
2018-01-15T02:04:53.835Z,137.57
2018-01-15T02:07:21.355Z,165.17
2018-01-15T02:09:48.848Z,121.70
2018-01-15T02:12:16.375Z,137.47
2018-01-15T02:14:43.867Z,120.70
2018-01-15T02:17:11.378Z,133.57
2018-01-15T02:19:39.638Z,128.00
2018-01-15T02:22:07.161Z,130.90
2018-01-15T02:24:34.655Z,134.20
2018-01-15T02:27:02.170Z,160.40
2018-01-15T02:29:29.666Z,151.07
2018-01-15T02:31:57.198Z,139.47
2018-01-15T02:34:24.685Z,131.00
2018-01-15T02:36:52.170Z,128.83
2018-01-15T02:39:19.686Z,140.23
2018-01-15T02:41:47.188Z,139.00
2018-01-15T02:44:14.713Z,140.13
2018-01-15T02:46:42.202Z,146.27
2018-01-15T02:49:09.724Z,143.70
2018-01-15T02:51:37.227Z,135.17
2018-01-15T02:54:04.749Z,159.57
2018-01-15T02:56:32.254Z,136.77
2018-01-15T02:58:59.784Z,135.03
2018-01-15T03:01:27.416Z,174.87
2018-01-15T03:03:54.908Z,128.13
2018-01-15T03:06:22.437Z,131.80
2018-01-15T03:08:49.943Z,173.00
2018-01-15T03:11:17.466Z,137.50
2018-01-15T03:13:44.954Z,138.93
2018-01-15T03:16:13.253Z,139.03
2018-01-15T03:18:40.775Z,136.60
2018-01-15T03:21:08.270Z,148.57
2018-01-15T03:23:35.798Z,134.60
2018-01-15T03:26:03.286Z,137.07
2018-01-15T03:28:31.585Z,124.70
2018-01-15T03:30:59.123Z,125.70
2018-01-15T03:33:27.442Z,128.73
2018-01-15T03:35:54.925Z,123.30
2018-01-15T03:38:22.422Z,124.43
2018-01-15T03:40:49.946Z,151.47
2018-01-15T03:43:17.439Z,132.63
2018-01-15T03:45:44.986Z,152.30
2018-01-15T03:48:12.486Z,143.33
2018-01-15T03:50:40.787Z,142.47
2018-01-15T03:53:08.286Z,136.93
2018-01-15T03:55:35.800Z,124.63
2018-01-15T03:58:04.105Z,130.97
2018-01-15T04:00:31.650Z,125.10
2018-01-15T04:02:59.143Z,131.30
2018-01-15T04:05:26.682Z,131.87
2018-01-15T04:07:54.344Z,144.27
2018-01-15T04:10:21.852Z,109.03
2018-01-15T04:12:50.137Z,138.97
2018-01-15T04:15:17.665Z,144.50
2018-01-15T04:17:45.194Z,156.10
2018-01-15T04:20:12.773Z,118.93
2018-01-15T04:22:41.033Z,117.17
2018-01-15T04:25:08.525Z,106.93
2018-01-15T04:27:36.058Z,107.20
2018-01-15T04:30:03.575Z,124.23
2018-01-15T04:32:31.066Z,112.47
2018-01-15T04:34:58.603Z,120.63
2018-01-15T04:37:26.134Z,109.20
2018-01-15T04:39:54.433Z,119.00
2018-01-15T04:42:21.970Z,122.33
2018-01-15T04:44:50.259Z,116.60
2018-01-15T04:47:18.664Z,135.47
2018-01-15T04:49:46.238Z,121.93
2018-01-15T04:52:13.742Z,123.60
2018-01-15T04:54:41.234Z,128.30
2018-01-15T04:57:09.534Z,128.60
2018-01-15T04:59:37.070Z,127.70
2018-01-15T05:02:05.362Z,120.93
2018-01-15T05:04:33.664Z,125.73
2018-01-15T05:07:01.156Z,128.33
2018-01-15T05:09:28.688Z,128.13
2018-01-15T05:11:56.188Z,162.80
2018-01-15T05:14:23.686Z,127.60
2018-01-15T05:16:51.973Z,147.80
2018-01-15T05:19:20.230Z,116.93
2018-01-15T05:21:47.749Z,121.20
2018-01-15T05:24:15.279Z,128.10
2018-01-15T05:26:43.570Z,116.77
2018-01-15T05:29:11.113Z,122.13
2018-01-15T05:31:38.589Z,122.63
2018-01-15T05:34:06.859Z,126.20
2018-01-15T05:36:34.381Z,129.60
2018-01-15T05:39:01.870Z,127.27
2018-01-15T05:41:29.359Z,124.73
2018-01-15T05:43:57.650Z,126.43
2018-01-15T05:46:25.187Z,124.23
2018-01-15T05:48:52.716Z,128.47
2018-01-15T05:51:20.207Z,130.97
2018-01-15T05:53:47.742Z,127.37
2018-01-15T05:56:15.261Z,130.10
2018-01-15T05:58:43.557Z,130.67
2018-01-15T06:01:11.042Z,126.50
2018-01-15T06:03:38.568Z,131.30
2018-01-15T06:06:06.853Z,130.53
2018-01-15T06:08:34.396Z,131.10
2018-01-15T06:11:01.891Z,132.33
2018-01-15T06:13:29.410Z,129.90
2018-01-15T06:15:56.933Z,131.77
2018-01-15T06:18:24.460Z,135.80
2018-01-15T06:20:52.724Z,133.07
2018-01-15T06:23:21.518Z,128.77
2018-01-15T06:25:49.049Z,129.90
2018-01-15T06:28:16.580Z,128.77
2018-01-15T06:30:44.514Z,129.47
2018-01-15T06:33:12.066Z,134.23
2018-01-15T06:35:39.591Z,131.90
2018-01-15T06:38:09.017Z,127.77
2018-01-15T06:40:36.509Z,126.73
2018-01-15T06:43:03.993Z,123.80
2018-01-15T06:45:32.273Z,126.70
2018-01-15T06:48:00.583Z,127.37
2018-01-15T06:50:28.109Z,132.17
2018-01-15T06:52:55.631Z,136.60
2018-01-15T06:55:23.122Z,136.20
2018-01-15T06:57:50.637Z,132.47
2018-01-15T07:00:18.185Z,135.43
2018-01-15T07:02:46.465Z,132.87
2018-01-15T07:05:14.717Z,140.07
2018-01-15T07:07:42.253Z,136.17
2018-01-15T07:10:09.738Z,136.93
2018-01-15T07:12:37.233Z,140.03
2018-01-15T07:15:05.517Z,141.67
2018-01-15T07:17:33.786Z,135.63
2018-01-15T07:20:02.087Z,140.13
2018-01-15T07:22:29.574Z,140.60
2018-01-15T07:24:57.054Z,140.57
2018-01-15T07:27:24.579Z,140.23
2018-01-15T07:29:52.078Z,136.70
2018-01-15T07:32:19.605Z,140.70
2018-01-15T07:34:47.128Z,131.43
2018-01-15T07:37:14.650Z,130.50
2018-01-15T07:39:42.146Z,132.77
2018-01-15T07:42:09.680Z,131.07
2018-01-15T07:44:37.183Z,127.07
2018-01-15T07:47:04.667Z,132.77
2018-01-15T07:49:32.966Z,132.90
2018-01-15T07:52:00.465Z,129.43
2018-01-15T07:54:28.006Z,125.53
2018-01-15T07:56:55.500Z,123.97
2018-01-15T07:59:22.987Z,119.70
2018-01-15T08:01:50.518Z,123.70
2018-01-15T08:04:18.007Z,122.43
2018-01-15T08:06:45.506Z,120.03
2018-01-15T08:09:13.071Z,120.57
2018-01-15T08:11:40.573Z,111.97
2018-01-15T08:14:08.064Z,103.80
2018-01-15T08:16:35.577Z,101.57
2018-01-15T08:19:03.077Z,96.53
2018-01-15T08:21:30.601Z,82.50
2018-01-15T08:23:58.096Z,85.57
2018-01-15T08:26:25.607Z,102.43
2018-01-15T08:28:54.076Z,90.53
2018-01-15T08:31:21.557Z,79.93
2018-01-15T08:33:49.854Z,79.87
2018-01-15T08:36:17.378Z,85.50
2018-01-15T08:38:45.652Z,89.10
2018-01-15T08:41:13.170Z,87.00
2018-01-15T08:43:40.709Z,95.20
2018-01-15T08:46:08.961Z,94.63
2018-01-15T08:48:36.498Z,90.30
2018-01-15T08:51:04.006Z,90.50
2018-01-15T08:53:32.258Z,89.70
2018-01-15T08:55:59.762Z,89.37
2018-01-15T08:58:27.283Z,89.00
2018-01-15T09:00:54.819Z,83.80
2018-01-15T09:03:22.310Z,78.50
2018-01-15T09:05:49.823Z,87.53
2018-01-15T09:08:17.311Z,97.40
2018-01-15T09:10:44.836Z,99.30
2018-01-15T09:13:13.079Z,95.17
2018-01-15T09:15:40.707Z,94.10
2018-01-15T09:18:08.233Z,73.37
2018-01-15T09:20:36.526Z,57.10
2018-01-15T09:23:04.020Z,50.57
2018-01-15T09:25:31.506Z,40.07
2018-01-15T09:27:59.037Z,31.53
2018-01-15T09:30:26.534Z,30.67
2018-01-15T09:32:54.020Z,31.90
2018-01-15T09:35:21.534Z,33.23
2018-01-15T09:37:49.096Z,34.37
2018-01-15T09:40:16.569Z,33.63
2018-01-15T09:42:44.090Z,34.23
2018-01-15T09:45:12.338Z,32.03
2018-01-15T09:47:39.887Z,36.00
2018-01-15T09:50:07.390Z,33.77
2018-01-15T09:52:35.637Z,32.97
2018-01-15T09:55:03.176Z,32.80
2018-01-15T09:57:30.669Z,32.53
2018-01-15T09:59:58.203Z,30.83
2018-01-15T10:02:25.683Z,32.03
2018-01-15T10:04:53.173Z,31.00
2018-01-15T10:07:20.674Z,29.90
2018-01-15T10:09:48.173Z,29.27
2018-01-15T10:12:15.689Z,30.77
2018-01-15T10:14:43.937Z,31.77
2018-01-15T10:17:11.465Z,30.73
2018-01-15T10:19:39.092Z,31.17
2018-01-15T10:22:07.380Z,33.80
2018-01-15T10:24:35.630Z,29.37
2018-01-15T10:27:03.130Z,32.70
2018-01-15T10:29:30.642Z,33.83
2018-01-15T10:31:58.122Z,30.70
2018-01-15T10:34:25.661Z,35.77
2018-01-15T10:36:53.149Z,38.67
2018-01-15T10:39:20.638Z,32.07
2018-01-15T10:41:48.918Z,32.53
2018-01-15T10:44:17.177Z,32.47
2018-01-15T10:46:44.738Z,31.73
2018-01-15T10:49:12.252Z,31.47
2018-01-15T10:51:39.770Z,33.30
2018-01-15T10:54:07.280Z,33.00
2018-01-15T10:56:34.775Z,31.40
2018-01-15T10:59:02.311Z,38.03
2018-01-15T11:01:29.795Z,33.47
2018-01-15T11:03:57.276Z,42.57
2018-01-15T11:06:24.806Z,40.10
2018-01-15T11:08:52.302Z,36.87
2018-01-15T11:11:19.822Z,38.13
2018-01-15T11:13:47.311Z,39.63
2018-01-15T11:16:14.854Z,39.87
2018-01-15T11:18:42.375Z,36.40
2018-01-15T11:21:09.884Z,39.47
2018-01-15T11:23:37.375Z,39.60
2018-01-15T11:26:04.935Z,41.50
2018-01-15T11:28:32.419Z,41.57
2018-01-15T11:30:59.902Z,43.40
2018-01-15T11:33:28.150Z,41.60
2018-01-15T11:35:55.693Z,44.00
2018-01-15T11:38:23.178Z,44.97
2018-01-15T11:40:50.689Z,38.63
2018-01-15T11:43:18.194Z,40.47
2018-01-15T11:45:45.727Z,38.90
2018-01-15T11:48:13.245Z,38.87
2018-01-15T11:50:40.721Z,40.00
2018-01-15T11:53:09.009Z,37.80
2018-01-15T11:55:36.539Z,36.27
2018-01-15T11:58:04.026Z,38.13
2018-01-15T12:00:32.309Z,37.80
2018-01-15T12:03:00.578Z,38.00
2018-01-15T12:05:28.091Z,39.73
2018-01-15T12:07:55.601Z,37.70
2018-01-15T12:10:23.157Z,42.13
2018-01-15T12:12:50.677Z,40.30
2018-01-15T12:15:18.198Z,40.37
2018-01-15T12:17:46.473Z,42.20
2018-01-15T12:20:13.964Z,39.63
2018-01-15T12:22:41.482Z,36.97
2018-01-15T12:25:08.974Z,38.33
2018-01-15T12:27:37.263Z,37.67
2018-01-15T12:30:05.516Z,39.00
2018-01-15T12:32:33.043Z,36.67
2018-01-15T12:35:00.558Z,37.20
2018-01-15T12:37:29.097Z,35.30
2018-01-15T12:39:56.583Z,30.80
2018-01-15T12:42:24.101Z,33.30
2018-01-15T12:44:51.581Z,33.17
2018-01-15T12:47:19.110Z,32.07
2018-01-15T12:49:47.361Z,33.40
2018-01-15T12:52:14.851Z,32.40
2018-01-15T12:54:43.141Z,32.60
2018-01-15T12:57:10.666Z,33.50
2018-01-15T12:59:38.193Z,33.63
2018-01-15T13:02:05.688Z,34.90
2018-01-15T13:04:33.214Z,33.40
2018-01-15T13:07:00.744Z,32.67
2018-01-15T13:09:28.997Z,34.83
2018-01-15T13:11:56.490Z,35.07
2018-01-15T13:14:24.782Z,33.13
2018-01-15T13:16:52.272Z,33.33
2018-01-15T13:19:19.806Z,34.20
2018-01-15T13:21:47.285Z,34.00
2018-01-15T13:24:14.802Z,31.40
2018-01-15T13:26:42.318Z,30.27
2018-01-15T13:29:09.814Z,28.60
2018-01-15T13:31:37.330Z,29.23
2018-01-15T13:34:04.812Z,28.40
2018-01-15T13:36:32.335Z,30.00
2018-01-15T13:39:00.605Z,35.20
2018-01-15T13:41:28.132Z,36.83
2018-01-15T13:43:55.665Z,39.00
2018-01-15T13:46:23.186Z,40.87
2018-01-15T13:48:50.669Z,42.13
2018-01-15T13:51:18.956Z,39.80
2018-01-15T13:53:47.208Z,41.50
2018-01-15T13:56:14.724Z,40.60
2018-01-15T13:58:42.213Z,41.87
2018-01-15T14:01:09.730Z,39.67
2018-01-15T14:03:37.262Z,44.13
2018-01-15T14:06:04.779Z,44.70
2018-01-15T14:08:32.295Z,43.00
2018-01-15T14:10:59.833Z,42.43
2018-01-15T14:13:27.321Z,42.93
2018-01-15T14:15:54.810Z,40.27
2018-01-15T14:18:22.348Z,41.87
2018-01-15T14:20:49.842Z,40.73
2018-01-15T14:23:17.337Z,41.20
2018-01-15T14:25:44.853Z,43.50
2018-01-15T14:28:13.114Z,42.47
2018-01-15T14:30:40.625Z,41.70
2018-01-15T14:33:08.156Z,42.93
2018-01-15T14:35:36.402Z,39.00
2018-01-15T14:38:03.926Z,35.80
2018-01-15T14:40:31.456Z,37.30
2018-01-15T14:42:58.953Z,32.10
2018-01-15T14:45:26.441Z,30.60
2018-01-15T14:47:53.957Z,30.90
2018-01-15T14:50:22.250Z,27.03
2018-01-15T14:52:49.734Z,30.57
2018-01-15T14:55:17.225Z,27.90
2018-01-15T14:57:44.756Z,28.03
2018-01-15T15:00:12.286Z,26.63
2018-01-15T15:02:40.540Z,29.50
2018-01-15T15:05:08.046Z,35.50
2018-01-15T15:07:35.537Z,28.47
2018-01-15T15:10:03.058Z,33.53
2018-01-15T15:12:31.310Z,31.13
2018-01-15T15:14:58.855Z,33.10
2018-01-15T15:17:26.349Z,32.77
2018-01-15T15:19:53.893Z,33.70
2018-01-15T15:22:21.374Z,34.00
2018-01-15T15:24:48.895Z,37.13
2018-01-15T15:27:16.426Z,35.77
2018-01-15T15:29:44.709Z,40.07
2018-01-15T15:32:13.006Z,38.20
2018-01-15T15:34:40.497Z,34.30
2018-01-15T15:37:08.007Z,73.47
2018-01-15T15:39:36.304Z,38.37
2018-01-15T15:42:03.786Z,39.90
2018-01-15T15:44:31.261Z,43.67
2018-01-15T15:46:58.798Z,40.13
2018-01-15T15:49:26.294Z,44.60
2018-01-15T15:51:53.790Z,39.40
2018-01-15T15:54:21.332Z,46.80
2018-01-15T15:56:48.813Z,56.43
2018-01-15T15:59:16.330Z,59.83
2018-01-15T16:01:43.821Z,65.87
2018-01-15T16:04:11.352Z,52.93
2018-01-15T16:06:38.885Z,40.60
2018-01-15T16:09:07.133Z,39.60
2018-01-15T16:11:34.625Z,51.63
2018-01-15T16:14:02.191Z,64.83
2018-01-15T16:16:29.690Z,42.07
2018-01-15T16:18:57.209Z,39.57
2018-01-15T16:21:25.502Z,34.30
2018-01-15T16:23:53.794Z,32.70
2018-01-15T16:26:22.041Z,32.50
2018-01-15T16:28:49.586Z,32.07
2018-01-15T16:31:17.068Z,29.77
2018-01-15T16:33:44.581Z,28.87
2018-01-15T16:36:12.098Z,29.47
2018-01-15T16:38:39.619Z,29.90
2018-01-15T16:41:07.146Z,28.50
2018-01-15T16:43:35.391Z,26.57
2018-01-15T16:46:02.911Z,24.30
2018-01-15T16:48:30.392Z,23.43
2018-01-15T16:50:57.920Z,23.43
2018-01-15T16:53:26.173Z,22.17
2018-01-15T16:55:53.685Z,24.13
2018-01-15T16:58:21.365Z,21.93
2018-01-15T17:00:48.734Z,22.17
2018-01-15T17:03:16.212Z,20.37
2018-01-15T17:05:43.742Z,22.43
2018-01-15T17:08:11.268Z,20.67
2018-01-15T17:10:39.529Z,22.30
2018-01-15T17:13:07.053Z,22.67
2018-01-15T17:15:34.549Z,22.97
2018-01-15T17:18:02.069Z,23.00
2018-01-15T17:20:29.555Z,24.30
2018-01-15T17:22:57.061Z,24.77
2018-01-15T17:25:25.359Z,23.00
2018-01-15T17:27:53.658Z,23.20
2018-01-15T17:30:21.176Z,23.50
2018-01-15T17:32:48.665Z,23.70
2018-01-15T17:35:16.959Z,22.53
2018-01-15T17:37:44.565Z,23.50
2018-01-15T17:40:12.058Z,23.90
2018-01-15T17:42:39.529Z,28.60
2018-01-15T17:45:07.824Z,24.23
2018-01-15T17:47:35.305Z,22.80
2018-01-15T17:50:02.846Z,25.10
2018-01-15T17:52:31.131Z,23.87
2018-01-15T17:54:58.613Z,23.37
2018-01-15T17:57:26.129Z,24.80
2018-01-15T17:59:53.615Z,24.47
2018-01-15T18:02:21.994Z,25.27
2018-01-15T18:04:50.243Z,25.00
2018-01-15T18:07:17.734Z,25.47
2018-01-15T18:09:46.018Z,26.73
2018-01-15T18:12:14.270Z,26.67
2018-01-15T18:14:41.796Z,26.13
2018-01-15T18:17:09.281Z,26.67
2018-01-15T18:19:36.790Z,26.60
2018-01-15T18:22:05.102Z,25.87
2018-01-15T18:24:33.375Z,25.53
2018-01-15T18:27:00.849Z,26.10
2018-01-15T18:29:28.340Z,26.30
2018-01-15T18:31:55.888Z,26.53
2018-01-15T18:34:23.390Z,26.90
2018-01-15T18:36:50.879Z,27.77
2018-01-15T18:39:18.406Z,26.10
2018-01-15T18:41:45.889Z,28.07
2018-01-15T18:44:14.155Z,27.10
2018-01-15T18:46:41.685Z,29.30
2018-01-15T18:49:09.202Z,31.20
2018-01-15T18:51:37.490Z,26.77
2018-01-15T18:54:05.003Z,31.50
2018-01-15T18:56:32.506Z,29.17
2018-01-15T18:59:00.785Z,29.73
2018-01-15T19:01:29.043Z,30.43
2018-01-15T19:03:56.572Z,45.50
2018-01-15T19:06:24.056Z,31.50
2018-01-15T19:08:51.563Z,29.63
2018-01-15T19:11:19.041Z,29.20
2018-01-15T19:13:46.568Z,30.33
2018-01-15T19:16:14.085Z,29.87
2018-01-15T19:18:41.606Z,31.10
2018-01-15T19:21:09.878Z,28.93
2018-01-15T19:23:37.398Z,33.30
2018-01-15T19:26:04.882Z,32.83
2018-01-15T19:28:32.362Z,70.53
2018-01-15T19:30:59.874Z,37.37
2018-01-15T19:33:27.346Z,39.23
2018-01-15T19:39:00.388Z,42.97
2018-01-15T19:41:28.682Z,44.67
2018-01-15T19:44:03.477Z,46.57
2018-01-15T19:46:36.558Z,80.50
2018-01-15T19:49:09.662Z,48.90
2018-01-15T19:51:42.869Z,52.90
2018-01-15T19:54:16.578Z,60.77
2018-01-15T19:56:49.812Z,53.77
2018-01-15T19:59:23.195Z,56.80
2018-01-15T20:01:56.673Z,69.10
2018-01-15T20:04:29.859Z,56.50
2018-01-15T20:07:04.070Z,66.10
2018-01-15T20:09:38.204Z,58.63
2018-01-15T20:12:06.470Z,56.47
2018-01-15T20:14:34.008Z,89.03
2018-01-15T20:17:01.523Z,185.43
2018-01-15T20:19:29.062Z,69.17
2018-01-15T20:21:56.570Z,69.40
2018-01-15T20:24:24.078Z,68.33
2018-01-15T20:26:51.630Z,71.80
2018-01-15T20:29:19.154Z,68.13
2018-01-15T20:31:46.684Z,70.87
2018-01-15T20:34:14.949Z,77.67
2018-01-15T20:36:42.437Z,88.83
2018-01-15T20:39:10.784Z,88.70
2018-01-15T20:41:38.258Z,71.90
2018-01-15T20:44:05.785Z,148.17
2018-01-15T20:46:33.324Z,73.00
2018-01-15T20:49:00.811Z,80.70
2018-01-15T20:51:28.332Z,72.20
2018-01-15T20:53:56.602Z,73.03
2018-01-15T20:56:24.134Z,79.80
2018-01-15T20:58:51.623Z,74.30
2018-01-15T21:01:19.146Z,127.17
2018-01-15T21:03:46.647Z,71.40
2018-01-15T21:06:14.206Z,76.83
2018-01-15T21:08:41.729Z,152.83
2018-01-15T21:11:09.205Z,71.67
2018-01-15T21:13:36.721Z,75.20
2018-01-15T21:16:04.973Z,67.87
2018-01-15T21:18:32.459Z,73.10
2018-01-15T21:21:00.734Z,71.60
2018-01-15T21:23:29.018Z,63.07
2018-01-15T21:25:57.307Z,73.67
2018-01-15T21:28:25.599Z,107.73
2018-01-15T21:30:53.129Z,86.40
2018-01-15T21:33:20.619Z,134.03
2018-01-15T21:35:48.948Z,123.80
2018-01-15T21:38:16.441Z,81.10
2018-01-15T21:40:43.965Z,93.70
2018-01-15T21:43:11.454Z,87.80
2018-01-15T21:45:38.973Z,77.23
2018-01-15T21:48:06.460Z,92.83
2018-01-15T21:50:33.956Z,83.73
2018-01-15T21:53:01.596Z,78.40
2018-01-15T21:55:29.086Z,145.37
2018-01-15T21:57:56.575Z,98.33
2018-01-15T22:00:24.099Z,100.40
2018-01-15T22:02:51.626Z,91.83
2018-01-15T22:05:19.106Z,91.33
2018-01-15T22:07:46.681Z,82.93
2018-01-15T22:10:14.214Z,88.87
2018-01-15T22:12:41.706Z,86.77
2018-01-15T22:17:52.646Z,138.73
2018-01-15T22:20:20.135Z,101.97
2018-01-15T22:22:47.661Z,116.23
2018-01-15T22:25:15.181Z,87.30
2018-01-15T22:27:42.719Z,106.60
2018-01-15T22:30:10.206Z,103.17
2018-01-15T22:32:37.755Z,119.40
2018-01-15T22:35:05.252Z,89.50
2018-01-15T22:37:33.520Z,93.20
2018-01-15T22:40:01.048Z,158.70
2018-01-15T22:42:28.535Z,99.60
2018-01-15T22:44:56.807Z,84.63
2018-01-15T22:47:24.344Z,100.03
2018-01-15T22:49:51.845Z,83.87
2018-01-15T22:52:19.334Z,131.30
2018-01-15T22:54:47.626Z,93.93
2018-01-15T22:57:15.132Z,85.93
2018-01-15T22:59:42.834Z,94.33
2018-01-15T23:02:11.113Z,112.13
2018-01-15T23:04:39.375Z,81.70
2018-01-15T23:07:06.890Z,79.27
2018-01-15T23:09:34.394Z,100.20
2018-01-15T23:12:02.029Z,95.93
2018-01-15T23:14:29.532Z,77.10
2018-01-15T23:16:57.036Z,79.17
2018-01-15T23:19:24.551Z,71.87
2018-01-15T23:21:52.065Z,78.73
2018-01-15T23:24:19.568Z,78.73
2018-01-15T23:26:47.093Z,82.57
2018-01-15T23:29:15.371Z,138.60
2018-01-15T23:31:42.851Z,85.10
2018-01-15T23:34:10.333Z,87.77
2018-01-15T23:36:37.889Z,90.67
2018-01-15T23:39:05.413Z,85.43
2018-01-15T23:41:33.694Z,86.03
2018-01-15T23:44:01.990Z,90.10
2018-01-15T23:46:29.481Z,88.73
2018-01-15T23:48:57.019Z,88.73
2018-01-15T23:51:24.509Z,101.43
2018-01-15T23:53:52.021Z,84.37
2018-01-15T23:56:20.281Z,84.77
2018-01-15T23:58:47.818Z,84.30
